createdAt,value
2022-10-05T00:01:33.074Z,8.57
2022-10-05T00:03:10.531Z,8.55
2022-10-05T00:04:42.639Z,8.52
2022-10-05T00:06:14.901Z,8.55
2022-10-05T00:07:46.905Z,8.49
2022-10-05T00:09:23.933Z,8.48
2022-10-05T00:10:56.198Z,8.44
2022-10-05T00:12:30.208Z,8.45
2022-10-05T00:14:02.418Z,8.43
2022-10-05T00:15:36.384Z,8.41
2022-10-05T00:17:14.124Z,8.39
2022-10-05T00:18:49.543Z,8.39
2022-10-05T00:20:24.600Z,8.36
2022-10-05T00:22:00.839Z,8.34
2022-10-05T00:23:32.897Z,8.34
2022-10-05T00:25:19.097Z,8.35
2022-10-05T00:26:55.546Z,8.30
2022-10-05T00:28:31.106Z,8.29
2022-10-05T00:30:14.304Z,8.33
2022-10-05T00:31:46.412Z,8.28
2022-10-05T00:33:18.487Z,8.25
2022-10-05T00:34:50.480Z,8.20
2022-10-05T00:36:22.889Z,8.14
2022-10-05T00:37:55.839Z,8.08
2022-10-05T00:39:29.169Z,8.06
2022-10-05T00:41:09.323Z,8.10
2022-10-05T00:43:27.851Z,8.08
2022-10-05T00:45:04.651Z,8.03
2022-10-05T00:46:58.804Z,8.05
2022-10-05T00:48:39.685Z,8.04
2022-10-05T00:50:18.480Z,8.04
2022-10-05T00:52:04.360Z,8.01
2022-10-05T00:54:14.696Z,8.04
2022-10-05T00:56:22.024Z,8.06
2022-10-05T00:59:50.202Z,8.09
2022-10-05T01:01:59.548Z,8.04
2022-10-05T01:04:08.468Z,8.05
2022-10-05T01:06:08.259Z,8.04
2022-10-05T01:07:54.766Z,8.03
2022-10-05T01:09:35.679Z,7.96
2022-10-05T01:11:25.534Z,8.00
2022-10-05T01:13:00.589Z,7.91
2022-10-05T01:14:38.750Z,7.95
2022-10-05T01:16:11.549Z,7.89
2022-10-05T01:17:49.616Z,7.91
2022-10-05T01:19:55.328Z,7.88
2022-10-05T01:21:28.933Z,7.83
2022-10-05T01:23:25.060Z,7.83
2022-10-05T01:25:06.752Z,7.74
2022-10-05T01:27:04.897Z,7.72
2022-10-05T01:28:57.492Z,7.67
2022-10-05T01:30:34.938Z,7.62
2022-10-05T01:32:16.782Z,7.57
2022-10-05T01:34:06.768Z,7.55
2022-10-05T01:35:51.977Z,7.60
2022-10-05T01:37:45.537Z,7.65
2022-10-05T01:39:29.405Z,7.57
2022-10-05T01:41:27.926Z,7.57
2022-10-05T01:43:27.639Z,7.50
2022-10-05T01:45:14.133Z,7.43
2022-10-05T01:47:12.240Z,7.49
2022-10-05T01:49:24.251Z,7.48
2022-10-05T01:51:25.621Z,7.41
2022-10-05T01:53:20.022Z,7.36
2022-10-05T01:55:35.438Z,7.41
2022-10-05T01:57:41.729Z,7.43
2022-10-05T01:59:51.095Z,7.46
2022-10-05T02:03:08.963Z,7.53
2022-10-05T02:05:06.985Z,7.57
2022-10-05T02:06:42.733Z,7.59
2022-10-05T02:08:39.098Z,7.59
2022-10-05T02:10:22.388Z,7.55
2022-10-05T02:11:58.671Z,7.52
2022-10-05T02:13:49.564Z,7.50
2022-10-05T02:15:29.369Z,7.52
2022-10-05T02:17:07.411Z,7.45
2022-10-05T02:18:44.336Z,7.42
2022-10-05T02:20:23.319Z,7.39
2022-10-05T02:22:04.568Z,7.32
2022-10-05T02:23:38.926Z,7.28
2022-10-05T02:25:15.100Z,7.27
2022-10-05T02:26:47.711Z,7.23
2022-10-05T02:28:24.099Z,7.21
2022-10-05T02:30:01.723Z,7.18
2022-10-05T02:31:49.176Z,7.17
2022-10-05T02:33:29.436Z,7.16
2022-10-05T02:35:13.175Z,7.18
2022-10-05T02:36:46.248Z,7.09
2022-10-05T02:38:33.993Z,7.19
2022-10-05T02:40:24.054Z,7.18
2022-10-05T02:42:05.019Z,7.21
2022-10-05T02:43:52.605Z,7.22
2022-10-05T02:45:52.899Z,7.24
2022-10-05T02:47:44.622Z,7.29
2022-10-05T02:49:46.685Z,7.29
2022-10-05T02:51:27.579Z,7.28
2022-10-05T02:52:59.910Z,7.26
2022-10-05T02:55:01.127Z,7.29
2022-10-05T02:56:45.126Z,7.26
2022-10-05T02:58:23.410Z,7.24
2022-10-05T03:00:09.158Z,7.21
2022-10-05T03:01:51.274Z,7.17
2022-10-05T03:04:10.403Z,7.11
2022-10-05T03:07:24.456Z,7.06
2022-10-05T03:09:06.022Z,7.03
2022-10-05T03:11:01.738Z,7.02
2022-10-05T03:12:52.669Z,6.99
2022-10-05T03:14:34.051Z,6.93
2022-10-05T03:16:49.183Z,6.89
2022-10-05T03:18:41.237Z,6.83
2022-10-05T03:20:31.839Z,6.74
2022-10-05T03:22:18.939Z,6.71
2022-10-05T03:24:24.166Z,6.67
2022-10-05T03:26:14.854Z,6.61
2022-10-05T03:27:59.058Z,6.62
2022-10-05T03:29:42.505Z,6.62
2022-10-05T03:31:29.250Z,6.62
2022-10-05T03:33:17.376Z,6.58
2022-10-05T03:34:56.829Z,6.59
2022-10-05T03:36:48.993Z,6.62
2022-10-05T03:38:29.976Z,6.59
2022-10-05T03:40:24.554Z,6.60
2022-10-05T03:42:20.794Z,6.69
2022-10-05T03:44:20.121Z,6.78
2022-10-05T03:46:21.107Z,6.84
2022-10-05T03:48:06.473Z,6.91
2022-10-05T03:49:58.238Z,6.89
2022-10-05T03:51:39.992Z,6.97
2022-10-05T03:53:51.492Z,7.00
2022-10-05T03:55:48.135Z,7.01
2022-10-05T03:57:33.904Z,7.04
2022-10-05T03:59:15.005Z,7.02
2022-10-05T04:00:50.238Z,7.01
2022-10-05T04:02:26.942Z,6.95
2022-10-05T04:04:04.422Z,6.94
2022-10-05T04:05:44.061Z,6.96
2022-10-05T04:07:28.239Z,6.98
2022-10-05T04:09:07.870Z,6.91
2022-10-05T04:10:52.529Z,6.84
2022-10-05T04:12:26.135Z,6.75
2022-10-05T04:14:24.349Z,6.71
2022-10-05T04:17:41.358Z,6.55
2022-10-05T04:19:26.546Z,6.52
2022-10-05T04:21:04.021Z,6.44
2022-10-05T04:22:39.095Z,6.37
2022-10-05T04:24:18.517Z,6.39
2022-10-05T04:25:58.300Z,6.37
2022-10-05T04:27:53.478Z,6.43
2022-10-05T04:29:47.121Z,6.46
2022-10-05T04:31:55.189Z,6.52
2022-10-05T04:33:27.951Z,6.48
2022-10-05T04:35:27.492Z,6.47
2022-10-05T04:37:04.226Z,6.40
2022-10-05T04:39:03.753Z,6.38
2022-10-05T04:40:44.553Z,6.32
2022-10-05T04:42:34.345Z,6.36
2022-10-05T04:44:21.352Z,6.35
2022-10-05T04:46:38.022Z,6.42
2022-10-05T04:48:27.203Z,6.41
2022-10-05T04:51:45.618Z,6.39
2022-10-05T04:53:33.482Z,6.42
2022-10-05T04:55:42.581Z,6.44
2022-10-05T04:57:20.456Z,6.38
2022-10-05T04:59:17.954Z,6.38
2022-10-05T05:01:13.487Z,6.42
2022-10-05T05:02:54.114Z,6.40
2022-10-05T05:05:03.045Z,6.43
2022-10-05T05:06:35.024Z,6.39
2022-10-05T05:08:25.064Z,6.47
2022-10-05T05:10:16.204Z,6.45
2022-10-05T05:12:04.385Z,6.56
2022-10-05T05:14:27.156Z,6.67
2022-10-05T05:16:10.596Z,6.74
2022-10-05T05:18:30.050Z,6.81
2022-10-05T05:20:35.990Z,6.84
2022-10-05T05:22:17.229Z,6.91
2022-10-05T05:23:52.391Z,6.92
2022-10-05T05:25:59.453Z,7.02
2022-10-05T05:27:34.125Z,7.03
2022-10-05T05:29:34.057Z,7.14
2022-10-05T05:31:09.766Z,7.19
2022-10-05T05:32:55.452Z,7.35
2022-10-05T05:34:36.165Z,7.46
2022-10-05T05:36:23.039Z,7.59
2022-10-05T05:38:05.275Z,7.69
2022-10-05T05:39:40.127Z,7.82
2022-10-05T05:41:40.496Z,7.95
2022-10-05T05:43:29.650Z,8.08
2022-10-05T05:45:11.692Z,8.19
2022-10-05T05:47:04.763Z,8.27
2022-10-05T05:48:47.105Z,8.41
2022-10-05T05:50:50.524Z,8.54
2022-10-05T05:52:26.242Z,8.67
2022-10-05T05:54:28.573Z,8.85
2022-10-05T05:56:33.728Z,8.99
2022-10-05T05:58:22.730Z,9.14
2022-10-05T06:00:06.802Z,9.26
2022-10-05T06:01:44.928Z,9.36
2022-10-05T06:03:26.338Z,9.48
2022-10-05T06:05:03.828Z,9.56
2022-10-05T06:06:41.147Z,9.67
2022-10-05T06:08:38.255Z,9.81
2022-10-05T06:10:49.317Z,9.95
2022-10-05T06:12:42.757Z,10.08
2022-10-05T06:14:39.265Z,10.21
2022-10-05T06:16:37.670Z,10.32
2022-10-05T06:18:15.027Z,10.43
2022-10-05T06:19:48.361Z,10.54
2022-10-05T06:21:26.897Z,10.62
2022-10-05T06:23:03.548Z,10.70
2022-10-05T06:26:14.030Z,10.86
2022-10-05T06:28:13.891Z,10.93
2022-10-05T06:29:54.623Z,10.98
2022-10-05T06:31:41.870Z,11.07
2022-10-05T06:33:50.872Z,11.20
2022-10-05T06:35:48.023Z,11.29
2022-10-05T06:37:28.610Z,11.35
2022-10-05T06:39:12.498Z,11.42
2022-10-05T06:40:57.914Z,11.52
2022-10-05T06:42:50.876Z,11.61
2022-10-05T06:44:27.137Z,11.66
2022-10-05T06:46:10.903Z,11.73
2022-10-05T06:47:54.760Z,11.82
2022-10-05T06:49:39.538Z,11.92
2022-10-05T06:51:25.893Z,12.02
2022-10-05T06:53:16.365Z,12.09
2022-10-05T06:55:03.480Z,12.15
2022-10-05T06:56:49.364Z,12.21
2022-10-05T06:58:46.320Z,12.32
2022-10-05T07:00:25.364Z,12.33
2022-10-05T07:02:04.637Z,12.35
2022-10-05T07:03:52.866Z,12.50
2022-10-05T07:05:48.564Z,12.58
2022-10-05T07:07:55.786Z,12.69
2022-10-05T07:09:41.402Z,12.81
2022-10-05T07:12:03.742Z,12.89
2022-10-05T07:13:46.086Z,12.97
2022-10-05T07:15:30.624Z,13.08
2022-10-05T07:17:15.038Z,13.18
2022-10-05T07:18:55.964Z,13.26
2022-10-05T07:20:57.127Z,13.40
2022-10-05T07:22:53.623Z,13.48
2022-10-05T07:24:43.683Z,13.53
2022-10-05T07:26:34.019Z,13.57
2022-10-05T07:30:19.269Z,13.65
2022-10-05T07:32:30.166Z,13.79
2022-10-05T07:34:27.299Z,13.88
2022-10-05T07:36:40.110Z,13.93
2022-10-05T07:38:21.468Z,13.99
2022-10-05T07:40:39.550Z,14.09
2022-10-05T07:42:22.354Z,14.15
2022-10-05T07:44:02.517Z,14.22
2022-10-05T07:45:54.095Z,14.28
2022-10-05T07:47:34.794Z,14.32
2022-10-05T07:49:17.986Z,14.35
2022-10-05T07:51:03.069Z,14.42
2022-10-05T07:52:40.362Z,14.49
2022-10-05T07:54:22.707Z,14.53
2022-10-05T07:55:56.963Z,14.57
2022-10-05T07:57:32.026Z,14.61
2022-10-05T07:59:16.710Z,14.70
2022-10-05T08:01:08.615Z,14.74
2022-10-05T08:02:51.259Z,14.77
2022-10-05T08:04:41.529Z,14.77
2022-10-05T08:06:27.521Z,14.80
2022-10-05T08:08:22.742Z,14.85
2022-10-05T08:10:06.869Z,14.85
2022-10-05T08:12:02.523Z,14.90
2022-10-05T08:13:41.684Z,14.95
2022-10-05T08:15:20.885Z,14.98
2022-10-05T08:16:54.759Z,15.03
2022-10-05T08:18:26.743Z,15.03
2022-10-05T08:20:14.408Z,15.13
2022-10-05T08:22:00.128Z,15.16
2022-10-05T08:23:58.843Z,15.23
2022-10-05T08:26:08.107Z,15.30
2022-10-05T08:29:53.331Z,15.40
2022-10-05T08:31:33.793Z,15.44
2022-10-05T08:33:13.853Z,15.48
2022-10-05T08:34:57.497Z,15.40
2022-10-05T08:36:53.630Z,15.42
2022-10-05T08:38:32.320Z,15.47
2022-10-05T08:40:19.375Z,15.50
2022-10-05T08:41:53.016Z,15.50
2022-10-05T08:43:47.457Z,15.57
2022-10-05T08:45:27.582Z,15.63
2022-10-05T08:47:11.770Z,15.66
2022-10-05T08:49:05.104Z,15.72
2022-10-05T08:51:09.353Z,15.74
2022-10-05T08:52:53.629Z,15.76
2022-10-05T08:54:43.711Z,15.84
2022-10-05T08:58:22.505Z,15.94
2022-10-05T09:00:03.161Z,16.01
2022-10-05T09:01:40.860Z,16.01
2022-10-05T09:03:19.512Z,15.99
2022-10-05T09:04:54.201Z,16.04
2022-10-05T09:06:51.888Z,16.16
2022-10-05T09:08:57.634Z,16.26
2022-10-05T09:10:55.616Z,16.34
2022-10-05T09:12:40.634Z,16.34
2022-10-05T09:14:34.263Z,16.41
2022-10-05T09:16:32.327Z,16.46
2022-10-05T09:18:32.046Z,16.54
2022-10-05T09:20:33.209Z,16.60
2022-10-05T09:22:26.996Z,16.64
2022-10-05T09:24:48.255Z,16.76
2022-10-05T09:27:01.146Z,16.78
2022-10-05T09:29:15.011Z,16.83
2022-10-05T09:32:41.507Z,16.98
2022-10-05T09:34:40.139Z,17.05
2022-10-05T09:36:51.349Z,17.08
2022-10-05T09:39:02.940Z,17.14
2022-10-05T09:41:02.597Z,17.20
2022-10-05T09:42:57.678Z,17.26
2022-10-05T09:44:52.554Z,17.29
2022-10-05T09:46:40.400Z,17.29
2022-10-05T09:48:49.964Z,17.35
2022-10-05T09:50:43.784Z,17.38
2022-10-05T09:52:40.555Z,17.32
2022-10-05T09:54:40.642Z,17.22
2022-10-05T09:58:23.472Z,16.99
2022-10-05T10:00:50.100Z,16.90
2022-10-05T10:02:48.837Z,16.88
2022-10-05T10:04:44.869Z,16.98
2022-10-05T10:06:43.239Z,17.08
2022-10-05T10:08:21.684Z,17.23
2022-10-05T10:10:31.467Z,17.40
2022-10-05T10:12:03.539Z,17.45
2022-10-05T10:14:01.303Z,17.44
2022-10-05T10:15:41.175Z,17.36
2022-10-05T10:17:36.488Z,17.32
2022-10-05T10:19:13.605Z,17.23
2022-10-05T10:21:24.803Z,17.21
2022-10-05T10:23:41.160Z,17.19
2022-10-05T10:25:19.479Z,17.17
2022-10-05T10:27:10.315Z,17.25
2022-10-05T10:28:57.678Z,17.28
2022-10-05T10:31:00.401Z,17.41
2022-10-05T10:32:51.617Z,17.49
2022-10-05T10:36:34.177Z,17.73
2022-10-05T10:38:16.535Z,17.76
2022-10-05T10:40:06.866Z,17.80
2022-10-05T10:42:16.557Z,17.91
2022-10-05T10:44:13.498Z,17.97
2022-10-05T10:45:48.886Z,18.03
2022-10-05T10:47:39.808Z,18.03
2022-10-05T10:49:39.969Z,18.12
2022-10-05T10:51:20.095Z,18.08
2022-10-05T10:53:23.343Z,18.10
2022-10-05T10:55:10.450Z,18.04
2022-10-05T10:56:59.310Z,18.05
2022-10-05T10:58:52.335Z,18.12
2022-10-05T11:00:48.257Z,18.19
2022-10-05T11:02:32.021Z,18.18
2022-10-05T11:04:22.874Z,18.27
2022-10-05T11:06:00.765Z,18.36
2022-10-05T11:07:41.793Z,18.38
2022-10-05T11:09:23.508Z,18.48
2022-10-05T11:11:07.646Z,18.50
2022-10-05T11:13:15.182Z,18.18
2022-10-05T11:15:24.453Z,18.12
2022-10-05T11:17:21.003Z,18.07
2022-10-05T11:19:39.983Z,18.07
2022-10-05T11:21:37.076Z,18.12
2022-10-05T11:23:21.039Z,18.11
2022-10-05T11:25:14.672Z,18.13
2022-10-05T11:27:08.680Z,18.19
2022-10-05T11:29:06.785Z,18.23
2022-10-05T11:30:59.394Z,18.23
2022-10-05T11:33:01.584Z,18.32
2022-10-05T11:35:01.447Z,18.42
2022-10-05T11:36:33.472Z,18.50
2022-10-05T11:38:15.497Z,18.58
2022-10-05T11:40:17.155Z,18.58
2022-10-05T11:42:12.129Z,18.64
2022-10-05T11:43:51.392Z,18.61
2022-10-05T11:45:26.790Z,18.69
2022-10-05T11:47:20.470Z,18.66
2022-10-05T11:49:17.330Z,18.62
2022-10-05T11:51:12.695Z,18.65
2022-10-05T11:52:56.012Z,18.53
2022-10-05T11:55:10.279Z,18.52
2022-10-05T11:56:57.229Z,18.41
2022-10-05T11:59:00.896Z,18.40
2022-10-05T12:00:47.272Z,18.48
2022-10-05T12:02:42.930Z,18.56
2022-10-05T12:04:38.155Z,18.62
2022-10-05T12:06:17.503Z,18.64
2022-10-05T12:08:18.990Z,18.69
2022-10-05T12:10:17.507Z,18.74
2022-10-05T12:12:04.442Z,18.86
2022-10-05T12:13:54.156Z,18.96
2022-10-05T12:15:38.324Z,19.03
2022-10-05T12:17:10.661Z,19.04
2022-10-05T12:18:49.471Z,19.06
2022-10-05T12:20:29.495Z,19.09
2022-10-05T12:22:38.605Z,19.13
2022-10-05T12:24:16.020Z,19.05
2022-10-05T12:25:59.870Z,19.10
2022-10-05T12:27:38.971Z,19.23
2022-10-05T12:29:27.553Z,19.30
2022-10-05T12:31:21.321Z,19.32
2022-10-05T12:32:58.120Z,19.36
2022-10-05T12:34:46.212Z,19.32
2022-10-05T12:36:59.643Z,19.32
2022-10-05T12:38:35.943Z,19.40
2022-10-05T12:40:18.540Z,19.43
2022-10-05T12:42:03.596Z,19.54
2022-10-05T12:43:54.932Z,19.45
2022-10-05T12:45:46.441Z,19.46
2022-10-05T12:47:51.522Z,19.26
2022-10-05T12:49:56.187Z,19.39
2022-10-05T12:51:55.968Z,19.32
2022-10-05T12:53:52.536Z,19.34
2022-10-05T12:55:52.094Z,19.34
2022-10-05T12:57:27.013Z,19.37
2022-10-05T12:59:20.353Z,19.50
2022-10-05T13:01:27.995Z,19.65
2022-10-05T13:03:17.432Z,19.60
2022-10-05T13:05:11.391Z,19.51
2022-10-05T13:07:20.525Z,19.53
2022-10-05T13:09:01.554Z,19.64
2022-10-05T13:12:26.285Z,19.55
2022-10-05T13:14:07.763Z,19.45
2022-10-05T13:15:55.447Z,19.52
2022-10-05T13:17:53.327Z,19.54
2022-10-05T13:19:41.348Z,19.51
2022-10-05T13:21:21.077Z,19.51
2022-10-05T13:23:08.326Z,19.45
2022-10-05T13:25:02.170Z,19.50
2022-10-05T13:26:39.974Z,19.47
2022-10-05T13:28:26.900Z,19.41
2022-10-05T13:30:08.935Z,19.31
2022-10-05T13:31:48.131Z,19.20
2022-10-05T13:56:06.151Z,19.24
2022-10-05T13:58:17.924Z,19.24
2022-10-05T13:59:58.147Z,19.19
2022-10-05T14:01:35.148Z,19.16
2022-10-05T14:03:24.779Z,19.12
2022-10-05T14:05:17.867Z,19.08
2022-10-05T14:06:50.185Z,19.04
2022-10-05T14:08:27.851Z,19.03
2022-10-05T14:10:01.367Z,18.96
2022-10-05T14:11:35.838Z,19.01
2022-10-05T14:13:32.866Z,19.06
2022-10-05T14:15:23.894Z,19.05
2022-10-05T14:17:06.035Z,18.95
2022-10-05T14:18:39.111Z,18.98
2022-10-05T14:20:31.783Z,19.01
2022-10-05T14:22:11.918Z,19.05
2022-10-05T14:23:44.402Z,18.99
2022-10-05T14:26:53.282Z,19.03
2022-10-05T14:28:30.095Z,18.96
2022-10-05T14:30:26.122Z,18.98
2022-10-05T14:32:14.719Z,18.96
2022-10-05T14:33:47.072Z,18.89
2022-10-05T14:35:24.582Z,18.92
2022-10-05T14:37:20.428Z,18.93
2022-10-05T14:38:58.169Z,18.88
2022-10-05T14:40:35.838Z,18.88
2022-10-05T14:42:25.468Z,18.85
2022-10-05T14:44:02.486Z,18.83
2022-10-05T14:45:36.015Z,18.78
2022-10-05T14:47:30.088Z,18.78
2022-10-05T14:49:17.465Z,18.78
2022-10-05T14:50:56.322Z,18.77
2022-10-05T14:52:32.972Z,18.75
2022-10-05T14:56:18.965Z,18.72
2022-10-05T14:58:17.015Z,18.65
2022-10-05T15:00:13.630Z,18.62
2022-10-05T15:01:55.659Z,18.58
2022-10-05T15:03:38.640Z,18.53
2022-10-05T15:05:25.036Z,18.48
2022-10-05T15:07:21.199Z,18.41
2022-10-05T15:09:09.132Z,18.38
2022-10-05T15:11:04.052Z,18.30
2022-10-05T15:12:40.409Z,18.25
2022-10-05T15:14:37.907Z,18.23
2022-10-05T15:16:31.743Z,18.15
2022-10-05T15:18:25.415Z,18.09
2022-10-05T15:20:28.936Z,18.03
2022-10-05T15:22:27.589Z,17.95
2022-10-05T15:24:09.757Z,17.90
2022-10-05T15:26:18.869Z,17.84
2022-10-05T15:28:12.982Z,17.74
2022-10-05T15:30:00.245Z,17.65
2022-10-05T15:31:48.344Z,17.59
2022-10-05T15:33:35.982Z,17.50
2022-10-05T15:35:25.994Z,17.48
2022-10-05T15:37:17.219Z,17.46
2022-10-05T15:39:33.244Z,17.36
2022-10-05T15:41:15.566Z,17.26
2022-10-05T15:42:48.376Z,17.10
2022-10-05T15:44:40.747Z,17.05
2022-10-05T15:46:29.229Z,16.92
2022-10-05T15:48:08.850Z,16.82
2022-10-05T15:49:57.699Z,16.75
2022-10-05T15:51:51.164Z,16.67
2022-10-05T15:53:34.920Z,16.56
2022-10-05T15:55:22.652Z,16.44
2022-10-05T15:57:02.767Z,16.31
2022-10-05T16:00:16.936Z,16.08
2022-10-05T16:02:01.325Z,15.97
2022-10-05T16:03:52.242Z,15.87
2022-10-05T16:06:00.025Z,15.82
2022-10-05T16:08:04.417Z,15.73
2022-10-05T16:10:00.673Z,15.67
2022-10-05T16:11:41.871Z,15.56
2022-10-05T16:13:34.476Z,15.52
2022-10-05T16:15:19.148Z,15.41
2022-10-05T16:17:07.261Z,15.24
2022-10-05T16:19:16.984Z,15.03
2022-10-05T16:20:51.075Z,14.85
2022-10-05T16:22:34.065Z,14.71
2022-10-05T16:24:21.075Z,14.61
2022-10-05T16:26:13.498Z,14.48
2022-10-05T16:27:47.476Z,14.30
2022-10-05T16:29:37.840Z,14.21
2022-10-05T16:31:18.287Z,14.08
2022-10-05T16:33:05.910Z,13.95
2022-10-05T16:35:01.023Z,13.87
2022-10-05T16:37:17.459Z,13.81
2022-10-05T16:39:18.419Z,13.79
2022-10-05T16:41:06.039Z,13.77
2022-10-05T16:42:46.792Z,13.71
2022-10-05T16:44:35.057Z,13.68
2022-10-05T16:46:33.299Z,13.62
2022-10-05T16:48:20.257Z,13.53
2022-10-05T16:49:58.097Z,13.46
2022-10-05T16:52:02.288Z,13.42
2022-10-05T16:54:15.809Z,13.35
2022-10-05T16:55:50.274Z,13.25
2022-10-05T16:57:27.076Z,13.15
2022-10-05T16:59:20.297Z,13.15
2022-10-05T17:01:00.763Z,13.03
2022-10-05T17:02:39.678Z,12.92
2022-10-05T17:04:48.391Z,12.84
2022-10-05T17:06:46.189Z,12.77
2022-10-05T17:08:49.718Z,12.69
2022-10-05T17:10:51.257Z,12.63
2022-10-05T17:12:39.645Z,12.56
2022-10-05T17:14:16.318Z,12.44
2022-10-05T17:16:28.275Z,12.35
2022-10-05T17:18:10.191Z,12.24
2022-10-05T17:19:53.546Z,12.14
2022-10-05T17:21:52.214Z,12.06
2022-10-05T17:23:30.565Z,12.02
2022-10-05T17:25:18.586Z,11.98
2022-10-05T17:27:13.258Z,11.96
2022-10-05T17:28:51.633Z,11.91
2022-10-05T17:30:26.733Z,11.82
2022-10-05T17:32:33.758Z,11.81
2022-10-05T17:34:18.206Z,11.75
2022-10-05T17:36:08.805Z,11.70
2022-10-05T17:37:44.444Z,11.64
2022-10-05T17:39:19.262Z,11.59
2022-10-05T17:41:00.402Z,11.54
2022-10-05T17:42:34.732Z,11.46
2022-10-05T17:44:21.813Z,11.45
2022-10-05T17:45:55.092Z,11.37
2022-10-05T17:47:58.694Z,11.34
2022-10-05T17:50:14.778Z,11.28
2022-10-05T17:52:05.366Z,11.18
2022-10-05T17:54:05.658Z,11.16
2022-10-05T17:55:47.614Z,11.08
2022-10-05T17:57:25.619Z,11.03
2022-10-05T17:59:07.322Z,11.00
2022-10-05T18:00:42.305Z,10.95
2022-10-05T18:02:20.401Z,10.88
2022-10-05T18:03:53.029Z,10.86
2022-10-05T18:05:28.251Z,10.82
2022-10-05T18:07:03.029Z,10.81
2022-10-05T18:08:38.490Z,10.78
2022-10-05T18:10:12.225Z,10.76
2022-10-05T18:11:45.641Z,10.79
2022-10-05T18:13:21.491Z,10.84
2022-10-05T18:14:59.251Z,10.81
2022-10-05T18:17:11.449Z,10.89
2022-10-05T18:18:43.431Z,10.82
2022-10-05T18:20:25.867Z,10.88
2022-10-05T18:22:16.024Z,10.87
2022-10-05T18:24:02.351Z,10.83
2022-10-05T18:27:43.765Z,10.66
2022-10-05T18:29:54.847Z,10.61
2022-10-05T18:31:39.438Z,10.57
2022-10-05T18:33:39.333Z,10.52
2022-10-05T18:35:46.251Z,10.43
2022-10-05T18:37:42.129Z,10.37
2022-10-05T18:39:28.175Z,10.29
2022-10-05T18:41:19.952Z,10.22
2022-10-05T18:43:00.811Z,10.18
2022-10-05T18:44:39.774Z,10.14
2022-10-05T18:46:27.009Z,10.09
2022-10-05T18:48:29.879Z,10.08
2022-10-05T18:50:17.275Z,10.00
2022-10-05T18:52:10.838Z,9.99
2022-10-05T18:54:02.381Z,9.93
2022-10-05T18:55:42.737Z,9.90
2022-10-05T18:57:27.116Z,9.93
2022-10-05T18:59:44.023Z,9.97
2022-10-05T19:01:31.218Z,9.97
2022-10-05T19:03:27.978Z,9.97
2022-10-05T19:05:05.658Z,9.94
2022-10-05T19:06:52.381Z,9.96
2022-10-05T19:08:50.021Z,9.97
2022-10-05T19:10:33.466Z,9.99
2022-10-05T19:12:38.048Z,9.97
2022-10-05T19:14:37.011Z,10.00
2022-10-05T19:16:18.076Z,9.99
2022-10-05T19:17:52.983Z,9.96
2022-10-05T19:19:59.031Z,9.93
2022-10-05T19:21:39.808Z,9.88
2022-10-05T19:23:41.975Z,9.87
2022-10-05T19:27:04.485Z,9.81
2022-10-05T19:28:49.213Z,9.80
2022-10-05T19:30:27.517Z,9.76
2022-10-05T19:32:18.915Z,9.74
2022-10-05T19:34:29.957Z,9.72
2022-10-05T19:36:11.013Z,9.69
2022-10-05T19:37:49.108Z,9.72
2022-10-05T19:39:42.866Z,9.72
2022-10-05T19:41:17.680Z,9.69
2022-10-05T19:43:06.777Z,9.68
2022-10-05T19:44:48.146Z,9.63
2022-10-05T19:46:50.857Z,9.60
2022-10-05T19:48:32.785Z,9.55
2022-10-05T19:50:21.610Z,9.55
2022-10-05T19:51:58.112Z,9.54
2022-10-05T19:53:31.295Z,9.49
2022-10-05T19:55:17.639Z,9.45
2022-10-05T19:56:53.050Z,9.38
2022-10-05T19:58:30.036Z,9.36
2022-10-05T20:00:02.431Z,9.32
2022-10-05T20:01:35.763Z,9.29
2022-10-05T20:03:15.426Z,9.32
2022-10-05T20:04:55.250Z,9.33
2022-10-05T20:06:30.664Z,9.30
2022-10-05T20:08:05.157Z,9.31
2022-10-05T20:09:52.324Z,9.32
2022-10-05T20:11:27.509Z,9.28
2022-10-05T20:13:01.720Z,9.30
2022-10-05T20:14:59.113Z,9.27
2022-10-05T20:16:51.161Z,9.27
2022-10-05T20:19:03.918Z,9.25
2022-10-05T20:20:39.688Z,9.21
2022-10-05T20:22:23.958Z,9.17
2022-10-05T20:24:25.780Z,9.16
2022-10-05T20:26:16.878Z,9.07
2022-10-05T20:27:55.696Z,9.07
2022-10-05T20:29:37.854Z,9.04
2022-10-05T20:31:09.983Z,9.07
2022-10-05T20:32:42.426Z,9.03
2022-10-05T20:34:14.832Z,9.04
2022-10-05T20:35:46.913Z,9.02
2022-10-05T20:37:19.897Z,9.02
2022-10-05T20:38:51.922Z,9.00
2022-10-05T20:40:23.911Z,8.97
2022-10-05T20:41:55.907Z,8.94
2022-10-05T20:43:28.521Z,8.95
2022-10-05T20:45:00.599Z,8.95
2022-10-05T20:46:32.621Z,8.96
2022-10-05T20:48:04.915Z,8.98
2022-10-05T20:49:38.580Z,8.97
2022-10-05T20:51:10.575Z,8.94
2022-10-05T20:52:42.569Z,8.92
2022-10-05T20:54:18.455Z,8.87
2022-10-05T20:55:50.582Z,8.84
2022-10-05T20:57:24.315Z,8.80
2022-10-05T20:58:56.553Z,8.75
2022-10-05T21:00:51.574Z,8.73
2022-10-05T21:02:23.692Z,8.71
2022-10-05T21:03:55.764Z,8.74
2022-10-05T21:05:27.876Z,8.71
2022-10-05T21:07:05.841Z,8.71
2022-10-05T21:08:38.545Z,8.67
2022-10-05T21:10:11.414Z,8.66
2022-10-05T21:11:44.332Z,8.62
2022-10-05T21:13:16.310Z,8.58
2022-10-05T21:14:48.340Z,8.59
2022-10-05T21:16:21.094Z,8.60
2022-10-05T21:17:53.294Z,8.59
2022-10-05T21:19:25.373Z,8.59
2022-10-05T21:21:01.991Z,8.58
2022-10-05T21:22:36.634Z,8.57
2022-10-05T21:24:10.039Z,8.57
2022-10-05T21:25:41.893Z,8.57
2022-10-05T21:27:13.918Z,8.48
2022-10-05T21:28:45.966Z,8.45
2022-10-05T21:30:18.196Z,8.50
2022-10-05T21:31:50.350Z,8.51
2022-10-05T21:33:22.618Z,8.54
2022-10-05T21:34:54.658Z,8.57
2022-10-05T21:36:26.653Z,8.59
2022-10-05T21:38:01.770Z,8.67
2022-10-05T21:39:34.958Z,8.66
2022-10-05T21:41:08.008Z,8.68
2022-10-05T21:42:40.094Z,8.67
2022-10-05T21:44:12.085Z,8.62
2022-10-05T21:45:44.740Z,8.59
2022-10-05T21:47:16.817Z,8.50
2022-10-05T21:48:50.170Z,8.45
2022-10-05T21:50:22.270Z,8.39
2022-10-05T21:51:54.560Z,8.36
2022-10-05T21:53:29.577Z,8.31
2022-10-05T21:55:02.751Z,8.26
2022-10-05T21:56:36.808Z,8.26
2022-10-05T21:58:08.915Z,8.23
2022-10-05T21:59:40.991Z,8.19
2022-10-05T22:01:13.149Z,8.15
2022-10-05T22:02:45.560Z,8.09
2022-10-05T22:04:17.629Z,8.09
2022-10-05T22:05:49.612Z,8.07
2022-10-05T22:07:21.573Z,8.05
2022-10-05T22:08:53.561Z,8.03
2022-10-05T22:10:25.752Z,8.04
2022-10-05T22:11:57.769Z,8.00
2022-10-05T22:13:40.686Z,8.03
2022-10-05T22:15:12.960Z,7.99
2022-10-05T22:16:45.185Z,7.98
2022-10-05T22:18:18.608Z,7.99
2022-10-05T22:19:50.898Z,7.98
2022-10-05T22:21:26.018Z,8.02
2022-10-05T22:22:58.144Z,8.01
2022-10-05T22:24:30.269Z,8.02
2022-10-05T22:26:03.047Z,8.07
2022-10-05T22:27:35.998Z,8.10
2022-10-05T22:29:08.105Z,8.14
2022-10-05T22:30:40.252Z,8.17
2022-10-05T22:32:12.277Z,8.14
2022-10-05T22:33:44.481Z,8.08
2022-10-05T22:35:16.487Z,8.08
2022-10-05T22:36:48.942Z,8.10
2022-10-05T22:38:20.973Z,8.03
2022-10-05T22:39:55.551Z,8.05
2022-10-05T22:41:27.564Z,8.05
2022-10-05T22:42:59.564Z,8.04
2022-10-05T22:44:32.338Z,8.08
2022-10-05T22:46:11.759Z,8.14
2022-10-05T22:47:43.890Z,8.08
2022-10-05T22:49:16.225Z,8.04
2022-10-05T22:50:49.174Z,7.98
2022-10-05T22:53:54.140Z,7.97
2022-10-05T22:55:26.219Z,7.99
2022-10-05T22:56:58.359Z,7.98
2022-10-05T22:58:30.748Z,7.92
2022-10-05T23:00:03.054Z,7.90
2022-10-05T23:01:35.150Z,7.91
2022-10-05T23:03:07.378Z,7.93
2022-10-05T23:04:39.326Z,7.91
2022-10-05T23:06:13.796Z,7.89
2022-10-05T23:07:49.236Z,7.84
2022-10-05T23:09:21.351Z,7.77
2022-10-05T23:10:53.291Z,7.70
2022-10-05T23:12:25.268Z,7.68
2022-10-05T23:13:57.798Z,7.72
2022-10-05T23:15:29.754Z,7.76
2022-10-05T23:17:02.023Z,7.74
2022-10-05T23:18:34.300Z,7.71
2022-10-05T23:20:08.074Z,7.68
2022-10-05T23:21:40.254Z,7.60
2022-10-05T23:23:12.264Z,7.56
2022-10-05T23:24:44.220Z,7.55
2022-10-05T23:26:17.861Z,7.56
2022-10-05T23:27:49.909Z,7.54
2022-10-05T23:29:21.956Z,7.48
2022-10-05T23:30:59.276Z,7.46
2022-10-05T23:32:31.294Z,7.42
2022-10-05T23:34:03.273Z,7.42
2022-10-05T23:35:36.452Z,7.40
2022-10-05T23:37:08.551Z,7.35
2022-10-05T23:38:40.569Z,7.34
2022-10-05T23:40:14.422Z,7.34
2022-10-05T23:41:46.486Z,7.29
2022-10-05T23:43:18.526Z,7.27
2022-10-05T23:44:50.463Z,7.21
2022-10-05T23:46:22.607Z,7.22
2022-10-05T23:47:54.656Z,7.24
2022-10-05T23:49:26.611Z,7.19
2022-10-05T23:50:59.017Z,7.19
2022-10-05T23:52:31.036Z,7.15
2022-10-05T23:54:03.031Z,7.13
2022-10-05T23:55:35.017Z,7.09
2022-10-05T23:57:07.005Z,7.05
2022-10-05T23:58:39.477Z,7.03
